createdAt,value
2023-02-16T00:00:32.784Z,22.48
2023-02-16T00:03:00.212Z,23.35
2023-02-16T00:05:28.937Z,22.35
2023-02-16T00:07:57.172Z,24.20
2023-02-16T00:10:25.170Z,22.77
2023-02-16T00:13:12.272Z,25.75
2023-02-16T00:15:40.414Z,23.52
2023-02-16T00:18:15.574Z,26.02
2023-02-16T00:20:43.040Z,25.60
2023-02-16T00:23:10.428Z,24.70
2023-02-16T00:25:37.945Z,25.08
2023-02-16T00:28:06.484Z,26.95
2023-02-16T00:30:33.950Z,26.42
2023-02-16T00:33:01.584Z,24.42
2023-02-16T00:35:29.096Z,23.60
2023-02-16T00:37:56.483Z,25.42
2023-02-16T00:40:24.485Z,24.85
2023-02-16T00:42:51.932Z,24.88
2023-02-16T00:45:21.926Z,25.60
2023-02-16T00:47:51.850Z,23.30
2023-02-16T00:50:27.911Z,22.45
2023-02-16T00:52:58.339Z,23.45
2023-02-16T00:55:31.011Z,24.23
2023-02-16T00:58:17.113Z,23.30
2023-02-16T01:00:48.701Z,22.27
2023-02-16T01:03:25.199Z,23.45
2023-02-16T01:06:12.928Z,23.08
2023-02-16T01:08:59.033Z,23.40
2023-02-16T01:11:26.933Z,25.08
2023-02-16T01:13:55.374Z,24.90
2023-02-16T01:16:24.541Z,25.15
2023-02-16T01:18:52.832Z,24.45
2023-02-16T01:21:22.018Z,25.42
2023-02-16T01:23:49.520Z,26.27
2023-02-16T01:26:18.223Z,27.45
2023-02-16T01:28:47.359Z,31.77
2023-02-16T01:31:17.082Z,30.30
2023-02-16T01:33:44.647Z,30.75
2023-02-16T01:36:18.080Z,31.13
2023-02-16T01:38:45.839Z,29.92
2023-02-16T01:41:35.054Z,31.35
2023-02-16T01:44:04.257Z,32.55
2023-02-16T01:46:40.211Z,34.65
2023-02-16T01:49:12.825Z,36.05
2023-02-16T01:51:56.660Z,35.25
2023-02-16T01:54:32.268Z,34.42
2023-02-16T01:57:11.944Z,35.92
2023-02-16T02:00:04.412Z,37.40
2023-02-16T02:02:42.622Z,37.45
2023-02-16T02:05:36.966Z,38.25
2023-02-16T02:08:24.990Z,37.47
2023-02-16T02:11:01.954Z,40.85
2023-02-16T02:13:33.671Z,41.80
2023-02-16T02:16:02.344Z,43.40
2023-02-16T02:18:30.261Z,43.92
2023-02-16T02:21:16.286Z,40.83
2023-02-16T02:23:54.123Z,42.58
2023-02-16T02:26:40.153Z,41.67
2023-02-16T02:29:26.399Z,41.50
2023-02-16T02:32:14.600Z,42.05
2023-02-16T02:35:02.383Z,41.83
2023-02-16T02:38:01.702Z,42.75
2023-02-16T02:40:35.072Z,43.80
2023-02-16T02:43:15.082Z,42.92
2023-02-16T02:45:53.756Z,44.50
2023-02-16T02:48:21.204Z,44.42
2023-02-16T02:51:12.535Z,46.75
2023-02-16T02:53:43.443Z,46.05
2023-02-16T02:56:30.308Z,44.53
2023-02-16T02:59:19.414Z,44.38
2023-02-16T03:01:50.870Z,45.40
2023-02-16T03:04:22.795Z,44.08
2023-02-16T03:06:52.067Z,44.45
2023-02-16T03:09:20.843Z,44.70
2023-02-16T03:12:08.669Z,46.42
2023-02-16T03:14:38.239Z,49.15
2023-02-16T03:17:29.675Z,47.78
2023-02-16T03:20:16.298Z,48.65
2023-02-16T03:23:02.227Z,49.72
2023-02-16T03:25:53.253Z,48.78
2023-02-16T03:28:40.382Z,47.17
2023-02-16T03:31:09.695Z,48.03
2023-02-16T03:33:37.614Z,48.53
2023-02-16T03:36:06.117Z,49.15
2023-02-16T03:38:33.640Z,51.08
2023-02-16T03:41:01.293Z,49.67
2023-02-16T03:43:29.631Z,50.75
2023-02-16T03:45:57.119Z,47.33
2023-02-16T03:48:24.679Z,49.47
2023-02-16T03:50:52.064Z,51.33
2023-02-16T03:53:19.568Z,51.13
2023-02-16T03:55:47.929Z,54.25
2023-02-16T03:58:18.542Z,55.28
2023-02-16T04:00:46.290Z,55.70
2023-02-16T04:03:13.921Z,57.78
2023-02-16T04:05:41.782Z,57.13
2023-02-16T04:08:09.550Z,58.25
2023-02-16T04:10:37.387Z,57.67
2023-02-16T04:13:05.018Z,62.38
2023-02-16T04:15:32.974Z,59.65
2023-02-16T04:18:00.532Z,59.22
2023-02-16T04:20:29.954Z,60.35
2023-02-16T04:22:57.447Z,59.17
2023-02-16T04:25:25.048Z,57.85
2023-02-16T04:27:53.057Z,58.10
2023-02-16T04:30:24.818Z,58.90
2023-02-16T04:32:52.603Z,59.40
2023-02-16T04:35:20.282Z,59.58
2023-02-16T04:37:47.979Z,56.50
2023-02-16T04:40:17.653Z,57.72
2023-02-16T04:42:45.480Z,56.75
2023-02-16T04:45:13.344Z,54.45
2023-02-16T04:47:40.940Z,55.55
2023-02-16T04:50:08.834Z,55.33
2023-02-16T04:52:36.888Z,55.90
2023-02-16T04:55:05.691Z,53.13
2023-02-16T04:57:33.369Z,52.03
2023-02-16T05:00:00.817Z,60.58
2023-02-16T05:02:28.292Z,59.08
2023-02-16T05:04:55.675Z,53.90
2023-02-16T05:07:23.109Z,48.45
2023-02-16T05:09:50.664Z,49.13
2023-02-16T05:12:36.686Z,55.03
2023-02-16T05:15:04.702Z,61.13
2023-02-16T05:17:32.106Z,63.67
2023-02-16T05:20:01.695Z,58.30
2023-02-16T05:22:29.263Z,62.72
2023-02-16T05:24:56.788Z,100.53
2023-02-16T05:27:25.314Z,58.92
2023-02-16T05:29:52.872Z,52.53
2023-02-16T05:32:20.409Z,48.13
2023-02-16T05:34:47.932Z,47.10
2023-02-16T05:37:16.029Z,46.03
2023-02-16T05:39:43.461Z,45.42
2023-02-16T05:42:11.001Z,46.38
2023-02-16T05:44:38.625Z,47.28
2023-02-16T05:47:06.076Z,45.35
2023-02-16T05:49:33.599Z,44.22
2023-02-16T05:52:01.282Z,46.13
2023-02-16T05:54:28.781Z,50.78
2023-02-16T05:56:56.171Z,49.72
2023-02-16T05:59:24.029Z,52.08
2023-02-16T06:01:52.522Z,50.40
2023-02-16T06:04:20.974Z,57.03
2023-02-16T06:06:48.683Z,62.38
2023-02-16T06:09:16.145Z,72.68
2023-02-16T06:11:43.756Z,79.93
2023-02-16T06:14:12.468Z,81.82
2023-02-16T06:16:41.064Z,78.68
2023-02-16T06:19:09.365Z,80.03
2023-02-16T06:21:37.264Z,84.25
2023-02-16T06:24:04.914Z,85.53
2023-02-16T06:26:32.436Z,82.25
2023-02-16T06:28:59.961Z,86.93
2023-02-16T06:31:28.072Z,83.15
2023-02-16T06:33:56.932Z,81.95
2023-02-16T06:36:25.196Z,80.47
2023-02-16T06:38:52.923Z,81.03
2023-02-16T06:41:34.337Z,79.65
2023-02-16T06:44:02.957Z,79.32
2023-02-16T06:46:30.751Z,78.57
2023-02-16T06:48:58.238Z,84.45
2023-02-16T06:51:26.217Z,77.20
2023-02-16T06:53:53.678Z,75.25
2023-02-16T06:56:21.344Z,77.90
2023-02-16T06:58:48.916Z,85.55
2023-02-16T07:01:18.236Z,77.45
2023-02-16T07:03:45.708Z,79.95
2023-02-16T07:06:13.120Z,79.28
2023-02-16T07:08:40.565Z,79.97
2023-02-16T07:11:08.128Z,75.95
2023-02-16T07:13:36.643Z,80.55
2023-02-16T07:16:04.756Z,80.45
2023-02-16T07:18:32.293Z,82.70
2023-02-16T07:20:59.826Z,77.78
2023-02-16T07:23:27.288Z,68.05
2023-02-16T07:25:54.698Z,66.90
2023-02-16T07:28:22.122Z,61.90
2023-02-16T07:30:49.795Z,64.13
2023-02-16T07:33:17.345Z,48.58
2023-02-16T07:35:44.884Z,45.60
2023-02-16T07:38:12.423Z,38.67
2023-02-16T07:40:39.914Z,39.97
2023-02-16T07:43:07.425Z,42.17
2023-02-16T07:45:35.269Z,38.53
2023-02-16T07:48:02.800Z,37.38
2023-02-16T07:50:30.285Z,40.08
2023-02-16T07:52:57.694Z,33.90
2023-02-16T07:55:25.140Z,33.28
2023-02-16T07:57:56.916Z,34.15
2023-02-16T08:00:24.398Z,28.33
2023-02-16T08:02:51.979Z,29.17
2023-02-16T08:05:19.664Z,28.10
2023-02-16T08:07:47.841Z,28.30
2023-02-16T08:10:16.019Z,26.45
2023-02-16T08:12:43.436Z,25.48
2023-02-16T08:15:11.983Z,25.95
2023-02-16T08:17:39.571Z,25.65
2023-02-16T08:20:07.955Z,25.52
2023-02-16T08:22:36.035Z,24.77
2023-02-16T08:25:06.900Z,25.00
2023-02-16T08:27:34.620Z,24.40
2023-02-16T08:30:02.190Z,24.75
2023-02-16T08:32:30.289Z,24.25
2023-02-16T08:34:58.168Z,24.88
2023-02-16T08:37:25.727Z,24.00
2023-02-16T08:39:53.875Z,25.33
2023-02-16T08:42:21.372Z,25.20
2023-02-16T08:44:48.798Z,25.88
2023-02-16T08:47:18.420Z,24.95
2023-02-16T08:49:45.889Z,25.08
2023-02-16T08:52:13.404Z,25.25
2023-02-16T08:54:40.917Z,24.98
2023-02-16T08:57:08.335Z,25.60
2023-02-16T08:59:35.885Z,24.92
2023-02-16T09:02:03.776Z,25.48
2023-02-16T09:04:31.901Z,25.70
2023-02-16T09:06:59.805Z,24.15
2023-02-16T09:09:28.620Z,24.40
2023-02-16T09:11:57.723Z,24.55
2023-02-16T09:14:25.638Z,25.27
2023-02-16T09:16:53.154Z,24.75
2023-02-16T09:19:21.754Z,25.83
2023-02-16T09:21:50.985Z,25.00
2023-02-16T09:24:19.113Z,24.40
2023-02-16T09:26:46.664Z,25.33
2023-02-16T09:29:14.540Z,24.15
2023-02-16T09:31:42.567Z,24.42
2023-02-16T09:34:16.410Z,23.83
2023-02-16T09:36:44.259Z,23.77
2023-02-16T09:39:13.038Z,23.58
2023-02-16T09:41:58.942Z,24.83
2023-02-16T09:44:26.453Z,24.85
2023-02-16T09:46:56.169Z,23.70
2023-02-16T09:49:40.871Z,25.42
2023-02-16T09:52:08.282Z,24.57
2023-02-16T09:54:42.226Z,23.38
2023-02-16T09:57:19.505Z,24.73
2023-02-16T09:59:57.717Z,24.50
2023-02-16T10:02:39.500Z,23.90
2023-02-16T10:05:20.390Z,24.80
2023-02-16T10:08:00.193Z,24.40
2023-02-16T10:10:34.747Z,24.58
2023-02-16T10:13:05.803Z,24.50
2023-02-16T10:15:34.896Z,24.30
2023-02-16T10:18:07.457Z,24.98
2023-02-16T10:20:36.870Z,26.40
2023-02-16T10:23:12.913Z,25.88
2023-02-16T10:25:56.537Z,24.70
2023-02-16T10:28:38.569Z,25.92
2023-02-16T10:31:32.407Z,24.83
2023-02-16T10:34:18.549Z,25.13
2023-02-16T10:37:04.965Z,24.33
2023-02-16T10:39:38.684Z,23.98
2023-02-16T10:42:20.680Z,23.20
2023-02-16T10:45:00.958Z,22.80
2023-02-16T10:47:37.510Z,25.45
2023-02-16T10:50:09.021Z,23.73
2023-02-16T10:52:38.222Z,23.08
2023-02-16T10:55:07.063Z,22.98
2023-02-16T10:57:34.750Z,23.25
2023-02-16T11:00:03.758Z,22.88
2023-02-16T11:02:36.619Z,24.33
2023-02-16T11:05:06.446Z,22.30
2023-02-16T11:07:34.195Z,23.52
2023-02-16T11:10:20.120Z,24.13
2023-02-16T11:12:55.557Z,24.55
2023-02-16T11:15:24.548Z,23.42
2023-02-16T11:18:00.982Z,23.27
2023-02-16T11:20:29.880Z,23.27
2023-02-16T11:23:23.702Z,23.95
2023-02-16T11:26:06.472Z,23.08
2023-02-16T11:28:38.542Z,22.55
2023-02-16T11:31:14.905Z,22.70
2023-02-16T11:33:43.502Z,23.42
2023-02-16T11:36:40.110Z,23.00
2023-02-16T11:39:16.471Z,23.45
2023-02-16T11:41:50.179Z,22.65
2023-02-16T11:44:36.359Z,22.95
2023-02-16T11:47:06.054Z,23.20
2023-02-16T11:49:35.755Z,23.00
2023-02-16T11:52:19.045Z,24.60
2023-02-16T11:54:50.701Z,23.92
2023-02-16T11:57:24.473Z,22.35
2023-02-16T11:59:52.194Z,23.63
2023-02-16T12:02:31.804Z,23.60
2023-02-16T12:05:18.011Z,22.58
2023-02-16T12:07:57.621Z,22.98
2023-02-16T12:10:26.032Z,23.20
2023-02-16T12:12:56.310Z,21.88
2023-02-16T12:15:40.157Z,22.08
2023-02-16T12:18:34.276Z,20.33
2023-02-16T12:21:17.292Z,20.80
2023-02-16T12:24:13.855Z,20.40
2023-02-16T12:26:41.592Z,20.42
2023-02-16T12:29:27.425Z,22.25
2023-02-16T12:32:04.230Z,20.45
2023-02-16T12:34:31.746Z,21.63
2023-02-16T12:37:10.242Z,20.95
2023-02-16T12:40:13.289Z,20.73
2023-02-16T12:42:54.649Z,20.13
2023-02-16T12:45:27.014Z,21.08
2023-02-16T12:48:04.186Z,21.02
2023-02-16T12:50:33.173Z,22.15
2023-02-16T12:53:10.597Z,21.55
2023-02-16T12:55:40.564Z,22.30
2023-02-16T12:58:21.013Z,21.52
2023-02-16T13:01:01.051Z,22.60
2023-02-16T13:03:41.015Z,22.63
2023-02-16T13:06:25.145Z,23.25
2023-02-16T13:08:57.200Z,22.50
2023-02-16T13:11:29.140Z,24.58
2023-02-16T13:14:00.286Z,23.10
2023-02-16T13:16:45.494Z,24.20
2023-02-16T13:19:17.176Z,23.58
2023-02-16T13:24:37.905Z,22.50
2023-02-16T13:27:38.173Z,22.98
2023-02-16T13:30:24.668Z,21.88
2023-02-16T13:32:58.250Z,21.83
2023-02-16T13:35:37.216Z,22.25
2023-02-16T13:38:07.917Z,22.40
2023-02-16T13:40:54.290Z,22.13
2023-02-16T13:43:21.825Z,22.65
2023-02-16T13:45:53.809Z,20.80
2023-02-16T13:48:27.236Z,20.98
2023-02-16T13:51:03.876Z,21.17
2023-02-16T13:53:37.815Z,21.52
2023-02-16T13:56:14.264Z,21.25
2023-02-16T13:58:41.780Z,20.23
2023-02-16T14:01:27.961Z,20.75
2023-02-16T14:03:55.385Z,20.50
2023-02-16T14:06:34.796Z,20.05
2023-02-16T14:09:11.301Z,20.83
2023-02-16T14:11:54.325Z,22.25
2023-02-16T14:14:40.525Z,19.30
2023-02-16T14:17:21.754Z,20.83
2023-02-16T14:20:11.832Z,21.25
2023-02-16T14:22:39.254Z,19.70
2023-02-16T14:25:07.789Z,19.85
2023-02-16T14:27:43.077Z,18.55
2023-02-16T14:30:21.945Z,20.58
2023-02-16T14:33:09.577Z,20.60
2023-02-16T14:35:38.405Z,20.63
2023-02-16T14:38:17.313Z,21.35
2023-02-16T14:40:55.516Z,20.45
2023-02-16T14:43:33.108Z,20.70
2023-02-16T14:46:19.403Z,20.25
2023-02-16T14:48:48.623Z,18.92
2023-02-16T14:51:34.739Z,20.58
2023-02-16T14:54:19.400Z,20.73
2023-02-16T14:56:59.514Z,19.40
2023-02-16T14:59:39.280Z,20.02
2023-02-16T15:02:25.137Z,19.75
2023-02-16T15:04:52.850Z,18.80
2023-02-16T15:07:21.569Z,20.88
2023-02-16T15:09:57.432Z,22.45
2023-02-16T15:12:39.487Z,21.52
2023-02-16T15:15:10.322Z,22.02
2023-02-16T15:17:56.152Z,19.98
2023-02-16T15:20:32.202Z,19.05
2023-02-16T15:23:04.409Z,23.10
2023-02-16T15:25:33.936Z,21.15
2023-02-16T15:28:04.388Z,20.95
2023-02-16T15:30:33.656Z,21.25
2023-02-16T15:33:02.252Z,23.20
2023-02-16T15:35:32.347Z,28.35
2023-02-16T15:38:01.197Z,28.80
2023-02-16T15:40:31.747Z,26.70
2023-02-16T15:43:06.823Z,26.88
2023-02-16T15:45:37.842Z,26.75
2023-02-16T15:48:22.687Z,25.73
2023-02-16T15:50:51.832Z,25.08
2023-02-16T15:53:24.350Z,26.23
2023-02-16T15:55:51.917Z,24.30
2023-02-16T15:58:19.432Z,25.02
2023-02-16T16:00:47.837Z,23.27
2023-02-16T16:03:22.491Z,23.48
2023-02-16T16:05:59.445Z,22.80
2023-02-16T16:08:28.046Z,21.77
2023-02-16T16:10:56.167Z,22.88
2023-02-16T16:13:28.170Z,23.75
2023-02-16T16:16:01.576Z,25.00
2023-02-16T16:18:37.398Z,25.15
2023-02-16T16:21:05.550Z,25.65
2023-02-16T16:23:33.109Z,25.63
2023-02-16T16:26:00.756Z,25.90
2023-02-16T16:28:28.093Z,26.35
2023-02-16T16:31:12.681Z,27.05
2023-02-16T16:33:53.172Z,26.92
2023-02-16T16:36:21.083Z,26.95
2023-02-16T16:38:48.749Z,29.25
2023-02-16T16:41:27.756Z,28.33
2023-02-16T16:43:56.987Z,28.70
2023-02-16T16:46:25.869Z,29.48
2023-02-16T16:48:56.569Z,31.02
2023-02-16T16:51:27.794Z,31.58
2023-02-16T16:53:57.659Z,32.78
2023-02-16T16:56:25.198Z,32.47
2023-02-16T16:58:53.840Z,37.10
2023-02-16T17:01:21.897Z,85.38
2023-02-16T17:03:49.714Z,132.15
2023-02-16T17:06:18.380Z,169.38
2023-02-16T17:08:46.333Z,206.32
2023-02-16T17:11:23.881Z,227.02
2023-02-16T17:13:51.909Z,227.80
2023-02-16T17:16:39.826Z,181.80
2023-02-16T17:19:07.426Z,176.45
2023-02-16T17:21:34.835Z,143.45
2023-02-16T17:24:02.324Z,104.85
2023-02-16T17:26:29.978Z,133.50
2023-02-16T17:28:57.474Z,103.97
2023-02-16T17:31:24.995Z,113.60
2023-02-16T17:33:52.575Z,139.85
2023-02-16T17:36:20.909Z,122.97
2023-02-16T17:38:49.214Z,95.40
2023-02-16T17:41:21.825Z,95.80
2023-02-16T17:43:49.399Z,126.03
2023-02-16T17:46:17.456Z,122.55
2023-02-16T17:48:45.527Z,106.63
2023-02-16T17:51:15.529Z,95.82
2023-02-16T17:53:43.081Z,121.07
2023-02-16T17:56:11.911Z,108.43
2023-02-16T17:58:39.795Z,96.90
2023-02-16T18:01:07.783Z,83.45
2023-02-16T18:03:35.238Z,84.13
2023-02-16T18:06:02.934Z,87.40
2023-02-16T18:08:30.678Z,86.97
2023-02-16T18:11:02.139Z,90.18
2023-02-16T18:13:30.624Z,90.00
2023-02-16T18:15:58.980Z,87.30
2023-02-16T18:18:26.530Z,99.03
2023-02-16T18:20:54.255Z,103.70
2023-02-16T18:23:21.771Z,99.22
2023-02-16T18:25:49.187Z,91.15
2023-02-16T18:28:18.482Z,89.20
2023-02-16T18:30:47.817Z,92.18
2023-02-16T18:33:15.483Z,88.28
2023-02-16T18:35:42.960Z,82.05
2023-02-16T18:38:10.755Z,73.20
2023-02-16T18:40:38.221Z,58.72
2023-02-16T18:43:05.715Z,61.55
2023-02-16T18:45:33.179Z,51.63
2023-02-16T18:48:00.818Z,42.97
2023-02-16T18:50:28.409Z,46.60
2023-02-16T18:52:55.943Z,40.65
2023-02-16T18:55:23.341Z,31.83
2023-02-16T18:57:50.930Z,35.40
2023-02-16T19:00:23.003Z,42.15
2023-02-16T19:02:53.762Z,47.83
2023-02-16T19:05:21.371Z,44.70
2023-02-16T19:07:48.935Z,38.05
2023-02-16T19:10:16.800Z,36.13
2023-02-16T19:12:44.260Z,34.42
2023-02-16T19:15:11.751Z,37.75
2023-02-16T19:17:39.274Z,36.40
2023-02-16T19:20:09.761Z,40.15
2023-02-16T19:22:37.414Z,42.53
2023-02-16T19:25:05.851Z,52.88
2023-02-16T19:27:33.765Z,49.50
2023-02-16T19:30:01.312Z,57.58
2023-02-16T19:32:28.987Z,70.53
2023-02-16T19:34:56.421Z,61.30
2023-02-16T19:37:23.917Z,54.70
2023-02-16T19:39:51.450Z,52.05
2023-02-16T19:42:18.960Z,52.97
2023-02-16T19:44:46.554Z,57.58
2023-02-16T19:47:14.023Z,60.28
2023-02-16T19:49:41.506Z,53.85
2023-02-16T19:52:08.988Z,47.53
2023-02-16T19:54:37.161Z,45.58
2023-02-16T19:57:05.256Z,44.70
2023-02-16T19:59:33.295Z,43.08
2023-02-16T20:02:00.882Z,40.25
2023-02-16T20:04:28.569Z,38.35
2023-02-16T20:06:56.541Z,40.55
2023-02-16T20:09:24.176Z,37.97
2023-02-16T20:11:52.297Z,39.55
2023-02-16T20:14:19.799Z,38.83
2023-02-16T20:16:49.513Z,41.33
2023-02-16T20:19:16.972Z,43.83
2023-02-16T20:21:46.280Z,47.90
2023-02-16T20:24:14.118Z,50.15
2023-02-16T20:26:43.177Z,53.53
2023-02-16T20:29:11.653Z,59.55
2023-02-16T20:31:41.573Z,62.42
2023-02-16T20:34:09.747Z,67.53
2023-02-16T20:36:37.818Z,69.60
2023-02-16T20:39:09.256Z,67.28
2023-02-16T20:41:36.785Z,66.47
2023-02-16T20:44:04.775Z,68.22
2023-02-16T20:46:32.361Z,72.68
2023-02-16T20:48:59.903Z,72.32
2023-02-16T20:51:27.513Z,72.40
2023-02-16T20:53:54.956Z,75.80
2023-02-16T20:56:23.723Z,88.43
2023-02-16T20:58:52.293Z,86.03
2023-02-16T21:01:31.273Z,70.45
2023-02-16T21:03:59.524Z,63.58
2023-02-16T21:06:28.534Z,68.78
2023-02-16T21:08:56.119Z,68.10
2023-02-16T21:11:24.041Z,73.18
2023-02-16T21:13:51.809Z,75.13
2023-02-16T21:16:19.921Z,65.40
2023-02-16T21:18:47.515Z,77.03
2023-02-16T21:21:17.885Z,73.32
2023-02-16T21:23:46.724Z,59.80
2023-02-16T21:26:14.621Z,60.00
2023-02-16T21:28:42.120Z,58.60
2023-02-16T21:31:10.953Z,58.70
2023-02-16T21:33:38.843Z,57.63
2023-02-16T21:36:07.392Z,56.83
2023-02-16T21:38:35.798Z,60.15
2023-02-16T21:41:22.999Z,56.72
2023-02-16T21:43:50.880Z,57.13
2023-02-16T21:46:18.326Z,57.13
2023-02-16T21:48:46.547Z,57.70
2023-02-16T21:51:14.851Z,59.53
2023-02-16T21:53:42.349Z,56.90
2023-02-16T21:56:19.893Z,55.42
2023-02-16T21:58:47.820Z,57.78
2023-02-16T22:01:15.368Z,73.82
2023-02-16T22:03:42.968Z,68.10
2023-02-16T22:06:11.016Z,67.80
2023-02-16T22:08:38.547Z,70.03
2023-02-16T22:11:10.298Z,67.70
2023-02-16T22:13:38.131Z,60.08
2023-02-16T22:16:12.695Z,58.95
2023-02-16T22:18:41.086Z,57.13
2023-02-16T22:21:08.599Z,60.88
2023-02-16T22:23:36.484Z,56.33
2023-02-16T22:26:05.026Z,55.22
2023-02-16T22:28:33.263Z,52.03
2023-02-16T22:31:06.193Z,52.50
2023-02-16T22:33:34.046Z,49.60
2023-02-16T22:36:06.205Z,48.88
2023-02-16T22:38:34.311Z,51.97
2023-02-16T22:41:04.807Z,48.80
2023-02-16T22:43:32.381Z,47.08
2023-02-16T22:45:59.836Z,49.40
2023-02-16T22:48:27.332Z,50.70
2023-02-16T22:50:58.385Z,48.90
2023-02-16T22:53:27.023Z,48.72
2023-02-16T22:55:54.674Z,47.53
2023-02-16T22:58:22.459Z,47.50
2023-02-16T23:00:50.826Z,45.53
2023-02-16T23:03:18.272Z,48.47
2023-02-16T23:05:45.972Z,49.45
2023-02-16T23:08:13.413Z,50.20
2023-02-16T23:10:41.186Z,48.20
2023-02-16T23:13:09.831Z,49.92
2023-02-16T23:15:37.317Z,49.60
2023-02-16T23:18:04.815Z,49.58
2023-02-16T23:20:32.205Z,49.22
2023-02-16T23:22:59.627Z,44.83
2023-02-16T23:25:33.003Z,41.83
2023-02-16T23:28:01.270Z,43.88
2023-02-16T23:30:29.091Z,45.15
2023-02-16T23:32:56.864Z,43.88
2023-02-16T23:35:24.379Z,47.70
2023-02-16T23:37:51.942Z,47.05
2023-02-16T23:40:19.437Z,46.80
2023-02-16T23:42:46.854Z,47.35
2023-02-16T23:45:14.313Z,48.05
2023-02-16T23:47:41.746Z,47.03
2023-02-16T23:50:09.360Z,46.08
2023-02-16T23:52:36.761Z,46.08
2023-02-16T23:55:04.218Z,44.00
2023-02-16T23:57:31.623Z,45.40
2023-02-16T23:59:59.084Z,44.13
